createdAt,value
2023-03-06T00:01:17.779Z,99897.92
2023-03-06T00:03:48.563Z,99893.71
2023-03-06T00:06:20.970Z,99899.56
2023-03-06T00:08:55.668Z,99892.61
2023-03-06T00:11:26.015Z,99893.23
2023-03-06T00:13:53.854Z,99892.83
2023-03-06T00:16:23.163Z,99886.63
2023-03-06T00:18:49.611Z,99884.20
2023-03-06T00:21:16.526Z,99882.27
2023-03-06T00:23:43.233Z,99880.20
2023-03-06T00:26:10.610Z,99878.66
2023-03-06T00:28:38.725Z,99881.27
2023-03-06T00:31:08.554Z,99878.38
2023-03-06T00:33:36.064Z,99879.63
2023-03-06T00:36:05.611Z,99875.77
2023-03-06T00:38:35.485Z,99872.08
2023-03-06T00:41:13.201Z,99869.84
2023-03-06T00:43:58.202Z,99866.77
2023-03-06T00:46:25.197Z,99867.84
2023-03-06T00:48:57.300Z,99864.20
2023-03-06T00:51:33.746Z,99862.75
2023-03-06T00:54:03.656Z,99859.54
2023-03-06T00:56:40.572Z,99857.86
2023-03-06T00:59:12.529Z,99856.80
2023-03-06T01:01:42.877Z,99855.73
2023-03-06T01:04:12.041Z,99853.36
2023-03-06T01:06:45.294Z,99849.56
2023-03-06T01:09:15.859Z,99847.36
2023-03-06T01:11:42.704Z,99844.55
2023-03-06T01:14:09.811Z,99841.66
2023-03-06T01:16:41.896Z,99839.86
2023-03-06T01:19:11.186Z,99835.46
2023-03-06T01:21:38.095Z,99831.69
2023-03-06T01:24:05.157Z,99828.38
2023-03-06T01:26:32.142Z,99827.17
2023-03-06T01:29:01.715Z,99824.10
2023-03-06T01:31:31.001Z,99826.30
2023-03-06T01:34:04.696Z,99821.39
2023-03-06T01:36:35.652Z,99816.89
2023-03-06T01:39:04.701Z,99819.91
2023-03-06T01:41:41.695Z,99818.31
2023-03-06T01:44:13.943Z,99818.04
2023-03-06T01:46:44.150Z,99816.20
2023-03-06T01:49:18.117Z,99816.70
2023-03-06T01:52:27.369Z,99813.75
2023-03-06T01:55:14.026Z,99809.98
2023-03-06T01:57:46.825Z,99808.38
2023-03-06T02:00:21.510Z,99799.52
2023-03-06T02:02:53.846Z,99801.92
2023-03-06T02:05:21.460Z,99797.95
2023-03-06T02:07:50.100Z,99796.98
2023-03-06T02:10:18.729Z,99801.48
2023-03-06T02:12:47.394Z,99792.20
2023-03-06T02:15:17.435Z,99794.21
2023-03-06T02:17:46.236Z,99792.05
2023-03-06T02:20:21.112Z,99787.11
2023-03-06T02:23:15.552Z,99782.95
2023-03-06T02:25:45.607Z,99781.07
2023-03-06T02:28:17.689Z,99781.79
2023-03-06T02:30:46.500Z,99779.83
2023-03-06T02:33:19.048Z,99782.91
2023-03-06T02:35:57.820Z,99777.35
2023-03-06T02:38:28.714Z,99779.70
2023-03-06T02:40:57.968Z,99775.32
2023-03-06T02:43:29.286Z,99775.77
2023-03-06T02:45:56.107Z,99772.25
2023-03-06T02:48:22.888Z,99764.58
2023-03-06T02:50:49.853Z,99767.16
2023-03-06T02:53:19.094Z,99765.14
2023-03-06T02:55:48.993Z,99759.77
2023-03-06T02:58:16.896Z,99757.20
2023-03-06T03:00:43.619Z,99754.45
2023-03-06T03:03:10.269Z,99752.04
2023-03-06T03:05:37.182Z,99749.45
2023-03-06T03:08:04.612Z,99745.00
2023-03-06T03:10:31.307Z,99744.82
2023-03-06T03:13:01.014Z,99743.98
2023-03-06T03:15:27.873Z,99742.08
2023-03-06T03:17:54.618Z,99740.66
2023-03-06T03:20:26.810Z,99735.54
2023-03-06T03:22:58.092Z,99735.27
2023-03-06T03:25:26.360Z,99736.98
2023-03-06T03:27:53.408Z,99734.48
2023-03-06T03:30:20.480Z,99731.40
2023-03-06T03:32:47.244Z,99728.00
2023-03-06T03:35:14.338Z,99729.09
2023-03-06T03:37:41.371Z,99727.48
2023-03-06T03:40:11.691Z,99727.33
2023-03-06T03:42:40.602Z,99721.20
2023-03-06T03:45:07.950Z,99723.56
2023-03-06T03:47:34.953Z,99718.20
2023-03-06T03:50:01.649Z,99715.77
2023-03-06T03:52:31.102Z,99714.92
2023-03-06T03:54:58.199Z,99709.51
2023-03-06T03:57:25.187Z,99706.27
2023-03-06T03:59:51.792Z,99704.50
2023-03-06T04:02:21.594Z,99700.69
2023-03-06T04:04:49.101Z,99704.29
2023-03-06T04:07:18.988Z,99694.90
2023-03-06T04:09:45.812Z,99695.00
2023-03-06T04:12:12.521Z,99687.84
2023-03-06T04:14:39.132Z,99684.50
2023-03-06T04:17:05.730Z,99683.24
2023-03-06T04:19:32.309Z,99680.17
2023-03-06T04:21:59.202Z,99679.80
2023-03-06T04:24:28.961Z,99676.19
2023-03-06T04:26:55.696Z,99676.35
2023-03-06T04:29:22.462Z,99677.77
2023-03-06T04:31:48.956Z,99671.24
2023-03-06T04:34:15.744Z,99670.13
2023-03-06T04:36:45.275Z,99671.58
2023-03-06T04:39:14.513Z,99671.48
2023-03-06T04:41:42.277Z,99671.02
2023-03-06T04:44:09.632Z,99668.60
2023-03-06T04:46:36.441Z,99668.92
2023-03-06T04:49:04.130Z,99666.83
2023-03-06T04:51:31.212Z,99664.50
2023-03-06T04:53:57.795Z,99657.81
2023-03-06T04:56:24.532Z,99656.92
2023-03-06T04:58:51.468Z,99655.98
2023-03-06T05:01:18.857Z,99656.80
2023-03-06T05:03:45.576Z,99654.44
2023-03-06T05:06:12.478Z,99655.00
2023-03-06T05:08:39.271Z,99656.42
2023-03-06T05:11:06.070Z,99654.17
2023-03-06T05:13:32.840Z,99655.54
2023-03-06T05:16:05.548Z,99656.05
2023-03-06T05:18:33.407Z,99651.14
2023-03-06T05:21:06.790Z,99650.88
2023-03-06T05:23:36.481Z,99649.95
2023-03-06T05:26:09.793Z,99648.46
2023-03-06T05:28:36.627Z,99648.14
2023-03-06T05:31:03.623Z,99647.90
2023-03-06T05:33:35.230Z,99645.11
2023-03-06T05:36:02.477Z,99647.38
2023-03-06T05:38:29.430Z,99646.25
2023-03-06T05:40:56.242Z,99641.85
2023-03-06T05:43:23.291Z,99646.34
2023-03-06T05:45:53.182Z,99639.89
2023-03-06T05:48:20.151Z,99643.47
2023-03-06T05:50:46.826Z,99641.23
2023-03-06T05:53:13.387Z,99638.80
2023-03-06T05:55:40.137Z,99636.00
2023-03-06T05:58:06.650Z,99636.13
2023-03-06T06:00:34.225Z,99633.98
2023-03-06T06:03:02.074Z,99636.95
2023-03-06T06:05:28.858Z,99632.45
2023-03-06T06:07:55.947Z,99631.55
2023-03-06T06:10:22.780Z,99628.23
2023-03-06T06:12:49.562Z,99627.77
2023-03-06T06:15:16.436Z,99627.07
2023-03-06T06:17:43.389Z,99629.15
2023-03-06T06:20:11.282Z,99625.33
2023-03-06T06:22:38.350Z,99623.59
2023-03-06T06:25:06.552Z,99619.23
2023-03-06T06:27:33.472Z,99622.78
2023-03-06T06:30:00.050Z,99626.02
2023-03-06T06:32:26.729Z,99630.52
2023-03-06T06:34:56.381Z,99631.67
2023-03-06T06:37:26.019Z,99628.42
2023-03-06T06:39:52.930Z,99626.66
2023-03-06T06:42:33.304Z,99627.76
2023-03-06T06:45:05.390Z,99629.90
2023-03-06T06:47:34.325Z,99626.48
2023-03-06T06:50:04.214Z,99632.05
2023-03-06T06:52:30.965Z,99624.67
2023-03-06T06:54:57.730Z,99622.83
2023-03-06T06:57:24.471Z,99628.46
2023-03-06T06:59:53.821Z,99630.42
2023-03-06T07:02:20.982Z,99630.66
2023-03-06T07:05:02.395Z,99628.50
2023-03-06T07:07:31.491Z,99629.44
2023-03-06T07:09:58.328Z,99629.18
2023-03-06T07:12:25.338Z,99628.08
2023-03-06T07:14:51.932Z,99625.69
2023-03-06T07:17:18.968Z,99627.55
2023-03-06T07:19:45.912Z,99628.08
2023-03-06T07:22:15.664Z,99631.78
2023-03-06T07:24:42.693Z,99627.59
2023-03-06T07:27:09.816Z,99624.98
2023-03-06T07:29:36.970Z,99628.36
2023-03-06T07:32:04.344Z,99625.14
2023-03-06T07:34:31.666Z,99624.02
2023-03-06T07:37:00.896Z,99626.88
2023-03-06T07:39:28.218Z,99629.16
2023-03-06T07:41:55.145Z,99630.19
2023-03-06T07:44:22.176Z,99631.57
2023-03-06T07:46:49.395Z,99632.59
2023-03-06T07:49:17.063Z,99632.67
2023-03-06T07:51:44.274Z,99630.23
2023-03-06T07:54:11.179Z,99631.61
2023-03-06T07:56:38.191Z,99629.54
2023-03-06T07:59:05.097Z,99630.71
2023-03-06T08:01:32.066Z,99632.14
2023-03-06T08:03:59.375Z,99636.52
2023-03-06T08:06:30.213Z,99636.69
2023-03-06T08:08:57.638Z,99636.52
2023-03-06T08:11:27.264Z,99641.92
2023-03-06T08:13:55.264Z,99642.45
2023-03-06T08:16:26.956Z,99645.28
2023-03-06T08:18:54.357Z,99649.27
2023-03-06T08:21:24.107Z,99649.89
2023-03-06T08:23:51.484Z,99650.04
2023-03-06T08:26:23.989Z,99654.60
2023-03-06T08:28:52.595Z,99649.20
2023-03-06T08:31:25.845Z,99648.73
2023-03-06T08:33:53.668Z,99651.89
2023-03-06T08:36:20.979Z,99652.54
2023-03-06T08:38:48.206Z,99654.86
2023-03-06T08:41:15.682Z,99654.61
2023-03-06T08:43:42.462Z,99655.23
2023-03-06T08:46:10.755Z,99652.50
2023-03-06T08:48:37.670Z,99656.95
2023-03-06T08:51:04.646Z,99656.98
2023-03-06T08:53:42.656Z,99659.14
2023-03-06T08:56:25.751Z,99663.95
2023-03-06T08:58:53.699Z,99661.92
2023-03-06T09:01:29.090Z,99663.48
2023-03-06T09:03:57.542Z,99665.67
2023-03-06T09:06:27.499Z,99664.64
2023-03-06T09:08:55.388Z,99666.05
2023-03-06T09:11:25.893Z,99666.88
2023-03-06T09:13:53.963Z,99670.35
2023-03-06T09:16:21.803Z,99671.51
2023-03-06T09:18:50.891Z,99675.88
2023-03-06T09:21:17.828Z,99679.70
2023-03-06T09:23:44.496Z,99681.75
2023-03-06T09:26:12.483Z,99681.85
2023-03-06T09:28:40.589Z,99692.41
2023-03-06T09:31:09.695Z,99691.04
2023-03-06T09:33:36.784Z,99691.83
2023-03-06T09:36:04.148Z,99689.29
2023-03-06T09:38:31.155Z,99693.83
2023-03-06T09:40:57.960Z,99694.00
2023-03-06T09:43:30.227Z,99694.12
2023-03-06T09:45:59.383Z,99694.02
2023-03-06T09:48:42.435Z,99695.80
2023-03-06T09:51:16.611Z,99691.29
2023-03-06T09:54:12.018Z,99692.71
2023-03-06T09:56:39.263Z,99692.98
2023-03-06T09:59:13.854Z,99694.07
2023-03-06T10:01:44.203Z,99691.74
2023-03-06T10:04:37.808Z,99693.14
2023-03-06T10:07:18.386Z,99692.70
2023-03-06T10:09:57.939Z,99691.71
2023-03-06T10:12:28.694Z,99691.50
2023-03-06T10:15:24.043Z,99689.61
2023-03-06T10:17:51.038Z,99691.48
2023-03-06T10:20:28.681Z,99687.61
2023-03-06T10:23:35.815Z,99690.40
2023-03-06T10:26:11.059Z,99688.59
2023-03-06T10:29:13.185Z,99688.28
2023-03-06T10:31:49.749Z,99686.08
2023-03-06T10:34:28.210Z,99684.34
2023-03-06T10:36:55.360Z,99683.28
2023-03-06T10:39:23.102Z,99681.36
2023-03-06T10:41:50.017Z,99684.88
2023-03-06T10:44:18.450Z,99685.52
2023-03-06T10:46:47.707Z,99682.64
2023-03-06T10:49:30.110Z,99680.73
2023-03-06T10:52:03.068Z,99683.19
2023-03-06T10:54:39.618Z,99685.78
2023-03-06T10:57:20.253Z,99680.80
2023-03-06T11:00:08.214Z,99678.79
2023-03-06T11:02:37.309Z,99682.58
2023-03-06T11:05:05.696Z,99682.08
2023-03-06T11:07:36.210Z,99677.27
2023-03-06T11:10:07.890Z,99679.17
2023-03-06T11:12:39.914Z,99681.11
2023-03-06T11:15:19.983Z,99685.02
2023-03-06T11:18:05.825Z,99691.52
2023-03-06T11:20:50.982Z,99698.18
2023-03-06T11:23:26.944Z,99696.48
2023-03-06T11:26:15.384Z,99702.75
2023-03-06T11:29:12.078Z,99701.16
2023-03-06T11:31:55.262Z,99704.14
2023-03-06T11:34:42.809Z,99702.23
2023-03-06T11:37:46.024Z,99709.52
2023-03-06T11:40:24.177Z,99708.45
2023-03-06T11:43:16.645Z,99709.75
2023-03-06T11:45:48.700Z,99708.71
2023-03-06T11:48:15.844Z,99708.40
2023-03-06T11:50:52.555Z,99705.77
2023-03-06T11:53:28.787Z,99703.96
2023-03-06T11:56:31.682Z,99700.18
2023-03-06T11:59:36.624Z,99697.10
2023-03-06T12:02:19.119Z,99694.07
2023-03-06T12:05:31.818Z,99699.34
2023-03-06T12:08:36.267Z,99696.88
2023-03-06T12:11:12.456Z,99695.14
2023-03-06T12:13:49.954Z,99692.32
2023-03-06T12:16:32.668Z,99685.35
2023-03-06T12:19:17.148Z,99677.05
2023-03-06T12:22:17.591Z,99675.51
2023-03-06T12:24:56.278Z,99671.16
2023-03-06T12:27:45.928Z,99662.67
2023-03-06T12:30:21.616Z,99655.67
2023-03-06T12:32:57.500Z,99653.92
2023-03-06T12:35:46.252Z,99651.02
2023-03-06T12:38:45.172Z,99648.51
2023-03-06T12:41:36.887Z,99647.23
2023-03-06T12:44:27.410Z,99650.59
2023-03-06T12:50:47.719Z,99654.38
2023-03-06T12:53:30.722Z,99656.62
2023-03-06T12:56:00.760Z,99660.29
2023-03-06T12:58:30.236Z,99665.11
2023-03-06T13:01:44.550Z,99662.05
2023-03-06T13:04:36.762Z,99660.55
2023-03-06T13:07:19.739Z,99659.04
2023-03-06T13:10:01.011Z,99660.63
2023-03-06T13:12:39.095Z,99654.88
2023-03-06T13:15:41.059Z,99652.89
2023-03-06T13:18:42.801Z,99650.42
2023-03-06T13:21:45.263Z,99647.23
2023-03-06T13:24:24.585Z,99651.25
2023-03-06T13:27:08.680Z,99650.43
2023-03-06T13:29:49.014Z,99643.59
2023-03-06T13:32:22.425Z,99638.59
2023-03-06T13:34:50.052Z,99641.27
2023-03-06T13:37:20.320Z,99640.20
2023-03-06T13:40:10.077Z,99636.20
2023-03-06T13:42:57.539Z,99635.19
2023-03-06T13:45:28.627Z,99636.08
2023-03-06T13:50:49.414Z,99627.94
2023-03-06T13:53:34.439Z,99628.34
2023-03-06T13:56:36.190Z,99628.64
2023-03-06T13:59:15.974Z,99628.29
2023-03-06T14:02:24.182Z,99622.41
2023-03-06T14:04:54.865Z,99624.63
2023-03-06T14:07:30.541Z,99622.48
2023-03-06T14:10:18.422Z,99621.48
2023-03-06T14:12:50.974Z,99627.14
2023-03-06T14:15:22.670Z,99622.82
2023-03-06T14:18:23.958Z,99621.64
2023-03-06T14:20:54.465Z,99618.91
2023-03-06T14:23:38.086Z,99622.02
2023-03-06T14:26:25.665Z,99624.20
2023-03-06T14:28:52.675Z,99618.63
2023-03-06T14:31:22.397Z,99616.25
2023-03-06T14:34:02.686Z,99613.38
2023-03-06T14:36:47.869Z,99607.98
2023-03-06T14:39:37.186Z,99603.70
2023-03-06T14:42:16.940Z,99599.44
2023-03-06T14:44:44.690Z,99594.80
2023-03-06T14:47:26.392Z,99590.31
2023-03-06T14:50:21.745Z,99592.27
2023-03-06T14:52:57.566Z,99586.71
2023-03-06T14:55:26.372Z,99586.73
2023-03-06T14:58:07.921Z,99583.75
2023-03-06T15:00:38.120Z,99582.98
2023-03-06T15:03:16.517Z,99582.42
2023-03-06T15:05:45.646Z,99581.08
2023-03-06T15:08:17.450Z,99582.42
2023-03-06T15:10:55.348Z,99582.58
2023-03-06T15:13:25.179Z,99580.17
2023-03-06T15:15:56.110Z,99575.20
2023-03-06T15:18:35.179Z,99576.58
2023-03-06T15:21:14.398Z,99574.21
2023-03-06T15:23:44.700Z,99575.71
2023-03-06T15:26:21.646Z,99577.07
2023-03-06T15:29:09.055Z,99575.13
2023-03-06T15:31:44.348Z,99576.91
2023-03-06T15:34:11.059Z,99576.96
2023-03-06T15:36:48.957Z,99574.31
2023-03-06T15:39:30.888Z,99577.54
2023-03-06T15:42:26.614Z,99577.15
2023-03-06T15:44:55.639Z,99576.05
2023-03-06T15:47:23.452Z,99576.06
2023-03-06T15:49:57.466Z,99578.76
2023-03-06T15:52:24.160Z,99574.17
2023-03-06T15:54:50.861Z,99568.95
2023-03-06T15:57:32.884Z,99572.98
2023-03-06T16:00:03.812Z,99570.41
2023-03-06T16:02:32.886Z,99567.36
2023-03-06T16:05:02.874Z,99570.09
2023-03-06T16:07:29.636Z,99570.01
2023-03-06T16:09:56.510Z,99569.77
2023-03-06T16:12:23.492Z,99564.76
2023-03-06T16:14:50.081Z,99564.86
2023-03-06T16:17:18.129Z,99565.67
2023-03-06T16:19:45.258Z,99561.86
2023-03-06T16:22:12.325Z,99558.00
2023-03-06T16:24:40.726Z,99558.23
2023-03-06T16:27:15.158Z,99554.42
2023-03-06T16:29:44.471Z,99556.48
2023-03-06T16:32:11.205Z,99553.30
2023-03-06T16:34:37.934Z,99553.98
2023-03-06T16:37:06.302Z,99552.72
2023-03-06T16:39:33.599Z,99555.30
2023-03-06T16:42:00.338Z,99556.48
2023-03-06T16:44:27.014Z,99552.44
2023-03-06T16:46:53.919Z,99554.52
2023-03-06T16:49:23.815Z,99556.61
2023-03-06T16:51:51.321Z,99555.55
2023-03-06T16:54:18.216Z,99557.20
2023-03-06T16:56:45.671Z,99552.36
2023-03-06T16:59:12.835Z,99552.78
2023-03-06T17:01:42.604Z,99548.92
2023-03-06T17:04:09.381Z,99544.87
2023-03-06T17:06:36.122Z,99542.59
2023-03-06T17:09:02.945Z,99543.61
2023-03-06T17:11:29.781Z,99547.15
2023-03-06T17:13:56.392Z,99543.76
2023-03-06T17:16:23.130Z,99547.61
2023-03-06T17:18:50.706Z,99549.60
2023-03-06T17:21:17.514Z,99551.14
2023-03-06T17:23:44.928Z,99552.80
2023-03-06T17:26:20.538Z,99550.64
2023-03-06T17:28:47.506Z,99555.36
2023-03-06T17:31:19.677Z,99559.02
2023-03-06T17:33:46.593Z,99563.42
2023-03-06T17:36:14.615Z,99563.19
2023-03-06T17:38:42.849Z,99558.33
2023-03-06T17:41:10.708Z,99561.16
2023-03-06T17:43:39.110Z,99559.95
2023-03-06T17:46:08.303Z,99556.09
2023-03-06T17:48:35.311Z,99553.81
2023-03-06T17:51:02.302Z,99550.52
2023-03-06T17:53:29.265Z,99549.89
2023-03-06T17:55:59.419Z,99548.39
2023-03-06T17:58:27.171Z,99546.95
2023-03-06T18:00:54.428Z,99549.63
2023-03-06T18:03:21.798Z,99548.50
2023-03-06T18:05:57.793Z,99549.09
2023-03-06T18:08:24.651Z,99545.91
2023-03-06T18:10:51.528Z,99542.41
2023-03-06T18:13:18.439Z,99537.14
2023-03-06T18:15:45.069Z,99534.81
2023-03-06T18:18:11.579Z,99534.08
2023-03-06T18:20:42.064Z,99531.69
2023-03-06T18:23:09.022Z,99529.18
2023-03-06T18:25:35.985Z,99532.12
2023-03-06T18:28:02.464Z,99529.63
2023-03-06T18:30:29.020Z,99527.56
2023-03-06T18:32:55.862Z,99527.50
2023-03-06T18:35:22.654Z,99524.70
2023-03-06T18:37:49.204Z,99523.41
2023-03-06T18:40:16.134Z,99523.94
2023-03-06T18:42:42.969Z,99520.73
2023-03-06T18:45:10.395Z,99521.52
2023-03-06T18:47:37.001Z,99518.56
2023-03-06T18:50:03.823Z,99516.80
2023-03-06T18:52:30.509Z,99516.70
2023-03-06T18:54:57.230Z,99512.65
2023-03-06T18:57:24.238Z,99511.41
2023-03-06T18:59:50.946Z,99508.50
2023-03-06T19:02:17.620Z,99504.16
2023-03-06T19:04:47.348Z,99501.70
2023-03-06T19:07:15.212Z,99495.11
2023-03-06T19:09:44.316Z,99491.09
2023-03-06T19:12:11.523Z,99489.55
2023-03-06T19:14:38.229Z,99488.45
2023-03-06T19:17:04.978Z,99481.05
2023-03-06T19:19:31.452Z,99478.06
2023-03-06T19:21:59.304Z,99475.32
2023-03-06T19:24:26.637Z,99472.99
2023-03-06T19:26:53.393Z,99471.41
2023-03-06T19:29:20.276Z,99472.88
2023-03-06T19:31:52.135Z,99471.35
2023-03-06T19:34:18.800Z,99468.59
2023-03-06T19:36:45.473Z,99465.39
2023-03-06T19:39:12.177Z,99466.66
2023-03-06T19:41:39.125Z,99460.38
2023-03-06T19:44:06.181Z,99457.55
2023-03-06T19:46:34.615Z,99457.39
2023-03-06T19:49:03.497Z,99453.95
2023-03-06T19:51:30.443Z,99448.05
2023-03-06T19:53:58.074Z,99443.56
2023-03-06T19:56:27.490Z,99443.41
2023-03-06T19:58:54.788Z,99437.63
2023-03-06T20:01:23.136Z,99437.59
2023-03-06T20:03:52.991Z,99434.71
2023-03-06T20:06:20.181Z,99432.16
2023-03-06T20:08:47.461Z,99426.17
2023-03-06T20:11:24.290Z,99426.48
2023-03-06T20:13:50.923Z,99420.77
2023-03-06T20:16:18.545Z,99419.08
2023-03-06T20:18:45.717Z,99416.24
2023-03-06T20:21:13.318Z,99411.96
2023-03-06T20:23:39.916Z,99409.14
2023-03-06T20:26:11.889Z,99404.90
2023-03-06T20:28:40.045Z,99403.30
2023-03-06T20:31:20.854Z,99393.14
2023-03-06T20:33:50.741Z,99394.45
2023-03-06T20:36:23.232Z,99387.94
2023-03-06T20:38:51.374Z,99386.86
2023-03-06T20:41:24.589Z,99385.09
2023-03-06T20:43:51.688Z,99381.96
2023-03-06T20:46:20.030Z,99381.14
2023-03-06T20:48:52.181Z,99377.11
2023-03-06T20:51:24.360Z,99371.99
2023-03-06T20:53:55.714Z,99366.42
2023-03-06T20:56:27.326Z,99367.93
2023-03-06T20:58:56.847Z,99366.23
2023-03-06T21:01:26.101Z,99360.30
2023-03-06T21:03:53.198Z,99356.60
2023-03-06T21:06:20.838Z,99351.55
2023-03-06T21:08:47.816Z,99346.06
2023-03-06T21:11:15.129Z,99342.95
2023-03-06T21:13:41.581Z,99340.90
2023-03-06T21:16:11.540Z,99338.48
2023-03-06T21:18:41.683Z,99331.39
2023-03-06T21:21:20.408Z,99325.49
2023-03-06T21:23:48.360Z,99322.73
2023-03-06T21:26:22.744Z,99316.19
2023-03-06T21:28:49.321Z,99309.40
2023-03-06T21:31:18.270Z,99305.84
2023-03-06T21:33:45.647Z,99304.34
2023-03-06T21:36:12.832Z,99298.49
2023-03-06T21:38:39.621Z,99295.90
2023-03-06T21:41:20.141Z,99294.60
2023-03-06T21:43:46.809Z,99294.97
2023-03-06T21:46:13.883Z,99288.18
2023-03-06T21:48:40.822Z,99287.70
2023-03-06T21:51:10.487Z,99283.52
2023-03-06T21:53:41.687Z,99280.98
2023-03-06T21:56:11.979Z,99276.98
2023-03-06T21:58:39.182Z,99276.20
2023-03-06T22:01:16.873Z,99269.54
2023-03-06T22:03:43.486Z,99264.29
2023-03-06T22:06:17.834Z,99264.80
2023-03-06T22:08:47.352Z,99255.98
2023-03-06T22:11:16.561Z,99250.55
2023-03-06T22:13:44.838Z,99242.17
2023-03-06T22:16:12.133Z,99238.45
2023-03-06T22:18:38.876Z,99229.87
2023-03-06T22:21:14.271Z,99228.75
2023-03-06T22:23:40.837Z,99225.73
2023-03-06T22:26:10.390Z,99217.96
2023-03-06T22:28:37.868Z,99211.53
2023-03-06T22:31:13.291Z,99205.86
2023-03-06T22:33:40.668Z,99199.55
2023-03-06T22:36:12.359Z,99199.14
2023-03-06T22:38:43.067Z,99193.22
2023-03-06T22:41:10.943Z,99189.06
2023-03-06T22:43:37.705Z,99185.73
2023-03-06T22:46:07.241Z,99179.16
2023-03-06T22:48:34.306Z,99174.52
2023-03-06T22:51:05.916Z,99164.10
2023-03-06T22:53:33.427Z,99160.02
2023-03-06T22:56:01.279Z,99154.61
2023-03-06T22:58:34.213Z,99153.73
2023-03-06T23:01:21.102Z,99146.23
2023-03-06T23:03:50.156Z,99142.64
2023-03-06T23:06:34.158Z,99135.21
2023-03-06T23:09:03.353Z,99131.43
2023-03-06T23:11:30.440Z,99122.54
2023-03-06T23:13:58.798Z,99120.28
2023-03-06T23:16:25.569Z,99113.45
2023-03-06T23:18:53.398Z,99107.80
2023-03-06T23:21:24.560Z,99101.77
2023-03-06T23:23:54.829Z,99098.25
2023-03-06T23:26:24.828Z,99094.46
2023-03-06T23:28:52.679Z,99091.63
2023-03-06T23:31:22.966Z,99085.85
2023-03-06T23:33:53.225Z,99083.53
2023-03-06T23:36:19.840Z,99085.63
2023-03-06T23:38:49.255Z,99073.83
2023-03-06T23:41:18.098Z,99071.90
2023-03-06T23:43:45.848Z,99061.26
2023-03-06T23:46:13.505Z,99058.48
2023-03-06T23:48:41.570Z,99053.05
2023-03-06T23:51:19.154Z,99044.80
2023-03-06T23:53:52.515Z,99037.15
2023-03-06T23:56:19.362Z,99031.76
2023-03-06T23:58:48.195Z,99025.94
